logo
App data

Soldiers: Heroes of World War II

The player can take control of American, British, Russian, or German forces to play out battles that are set in World War II. The game is primarily a strategy game, but the player can take control of his or her forces and direct them with the keyboard and mouse for additional depth of control.
Store | Hub | SteamDB | Site
Developer: Best Way Publisher: 1C Company
Genre: Strategy
Languages: English, French, German, Italian, Spanish - Spain, Russian
Tags: Strategy (42), World War II (18), RTS (12)
Category: Single-player, Multi-player, Co-op
Release date: Jun 29, 2004
Price: $4.99
Score rank: 49% Userscore: 79% Old userscore: 81% Metascore: 77%
Owners: 100,000 .. 200,000
Followers: 1,369
Peak concurrent players yesterday: 21
YouTube stats: 67 views and 7 comments for videos uploaded last week, 0 new videos uploaded yesterday.
Playtime total: 01:53 (average) 00:12 (median)

Steam Spy is still in beta, so expect major bugs.

Owners data:

Access restricted.

This feature is only available to users with special access rights. Sorry.

If you want to proceed, you need to register or log in first and then back Steam Spy on Patreon. Look for Indie or Pro pledge.

Don't forget to use the same email as on Steam Spy!

Audience in 2 weeks:

Access restricted.

This feature is only available to users with special access rights. Sorry.

If you want to proceed, you need to register or log in first and then back Steam Spy on Patreon. Look for Indie or Pro pledge.

Don't forget to use the same email as on Steam Spy!

Peak daily concurrent players:

CCU data courtesy of SteamDB. Used with permission.

Hourly concurrent players:

Daily Twitch stats:

Hourly Twitch stats:

YouTube:

The views data is based on top 50 videos uploaded last week. Actual number of views might be more than the number shown.

The displayed number of videos uploaded yesterday is limited to 50, so if there were more videos uploaded, the number will still show 50.

If the game has commonly used word as its name (like "FEAR" or "Volume") its number of Youtube views might be wrong.

Games similar to this one:

# Game Release date
Price
Score rank
(Userscore / Metascore)
Owners
Players
Playtime (Median)
1 Hostile Waters: Antaeus Rising Jun 14, 2001 $2.9997% (97%/80%)100,000 .. 200,0000%00:00 (00:00)
2 Templar Battleforce Sep 21, 2015 $9.9993% (95%)20,000 .. 50,0000%00:00 (00:00)
3 Decisive Campaigns: Barbarossa Nov 24, 2015 $49.9993% (95%)0 .. 20,0000%00:00 (00:00)
4 War of the Human Tanks - ALTeR Feb 13, 2015 $12.9993% (95%)0 .. 20,0000%00:00 (00:00)
5 Frost Jul 5, 2016 $6.9987% (93%)0 .. 20,0000%00:00 (00:00)
6 Garden Rescue Feb 2, 2015 $3.9987% (93%)100,000 .. 200,0000%00:00 (00:00)
7 Zeus + Poseidon Dec 15, 2016 $9.9984% (92%)50,000 .. 100,0000%00:00 (00:00)
8 Gary Grigsby's War in the East Dec 7, 2010 $79.9984% (92%)0 .. 20,0000%00:00 (00:00)
9 Darknet Jun 8, 2017 $14.9984% (92%)0 .. 20,0000%00:00 (00:00)
10 Flashpoint Campaigns: Red Storm Player's Edition Oct 9, 2013 $49.9980% (91%)0 .. 20,0000%00:00 (00:00)
11 Battle Academy 2: Eastern Front Sep 12, 2014 $39.9980% (91%/78%)0 .. 20,0000%00:00 (00:00)
12 Children of a Dead Earth Sep 23, 2016 $24.9980% (91%)0 .. 20,0000%00:00 (00:00)
13 Kohan: Ahriman's Gift Nov 6, 2001 $9.99N/A (N/A/79%)0 .. 20,0000%00:00 (00:00)
14 Star Ruler Sep 20, 2010 $9.9966% (86%)100,000 .. 200,0000%00:00 (00:00)
15 Stalingrad Apr 5, 2005 $4.9966% (86%)20,000 .. 50,0001.28%03:47 (01:15)
16 MechoEcho May 18, 2016 $9.99N/A (N/A)0 .. 20,0000%00:00 (00:00)
17 NOBUNAGA'S AMBITION: Sphere of Influence Sep 1, 2015 $59.9958% (83%/70%)20,000 .. 50,0000%00:00 (00:00)
18 Advanced Tactics Gold Apr 12, 2011 $29.9958% (83%)0 .. 20,0000%00:00 (00:00)
19 Enemy Mar 17, 2015 $14.9958% (83%)0 .. 20,0000%00:00 (00:00)
20 Lords of the Realm Nov 30, 1994 $1.99N/A (N/A)0 .. 20,0000%00:00 (00:00)
21 Zombie Riot May 25, 2017 $19.99N/A (N/A)0 .. 20,0000%00:00 (00:00)
22 Viking Saga: New World Nov 5, 2015 $3.99N/A (N/A)0 .. 20,0000%00:00 (00:00)
23 Conflicks - Revolutionary Space Battles Nov 5, 2015 $6.9956% (82%/63%)0 .. 20,0000%00:00 (00:00)
24 Radiant Defense Jul 11, 2014 $4.9954% (81%)0 .. 20,0000%00:00 (00:00)
25 Stellar Monarch Dec 5, 2016 $19.9952% (80%)0 .. 20,0000%00:00 (00:00)
26 Strategic Command WWII: War in Europe Jun 6, 2017 $39.9949% (79%)0 .. 20,00025%04:39 (01:33)
27 Defense Zone 3 Ultra HD Dec 14, 2016 $2.9949% (79%)20,000 .. 50,0000%00:00 (00:00)
28 Race for the Galaxy Jun 27, 2017 $6.9947% (78%)20,000 .. 50,0000%00:00 (00:00)
29 War on Folvos Sep 25, 2006 $3.9947% (78%)20,000 .. 50,0000%00:00 (00:00)
30 Drive on Moscow Oct 27, 2016 $9.99N/A (N/A)0 .. 20,0000%00:00 (00:00)
31 Hidden Dimensions 3 Oct 12, 2016 FreeN/A (N/A)0 .. 20,0000%00:00 (00:00)
32 Catch Me Jun 11, 2016 $5.9945% (77%)0 .. 20,0000%00:00 (00:00)
33 Tank Battle: 1944 Mar 1, 2016 $9.99N/A (N/A)0 .. 20,0000%00:00 (00:00)
34 Star Hammer: The Vanguard Prophecy Jun 4, 2015 $19.9942% (75%/69%)0 .. 20,0007.69%00:58 (00:19)
35 Machines At War 3 Jul 23, 2014 $14.99N/A (N/A)0 .. 20,0000%00:00 (00:00)
36 Pick a Hero Jun 9, 2016 $0.99N/A (N/A)0 .. 20,0000%00:00 (00:00)
37 Attack Heroes Apr 27, 2017 $9.9936% (72%)0 .. 20,0000%00:00 (00:00)
38 Codex of Victory Mar 16, 2017 $14.9936% (72%)0 .. 20,0000%00:00 (00:00)
39 For The Glory: A Europa Universalis Game Nov 11, 2009 $9.9935% (71%)20,000 .. 50,0000%00:00 (00:00)
40 Mosby's Confederacy Nov 19, 2008 $9.99N/A (N/A)0 .. 20,0000%00:00 (00:00)
41 Helldorado Apr 30, 2009 $9.9931% (69%/65%)20,000 .. 50,0000%00:00 (00:00)
42 Little King's Story Aug 5, 2016 $19.9931% (69%/62%)0 .. 20,0000%00:00 (00:00)
43 Winds Of Trade Feb 13, 2017 $4.4928% (67%)0 .. 20,0000%00:00 (00:00)
44 Pure Chess Grandmaster Edition Sep 9, 2016 $15.9928% (67%)0 .. 20,0000%00:00 (00:00)
45 Warhammer 40,000: Armageddon - Da Orks Aug 18, 2016 $19.99N/A (N/A)0 .. 20,0000%00:00 (00:00)
46 Rooster Teeth vs. Zombiens Dec 18, 2014 N/A27% (66%)0 .. 20,0000%00:00 (00:00)
47 Beasts Battle Jun 15, 2016 $1.9923% (63%)0 .. 20,0000%00:00 (00:00)
48 Battle of the Bulge Sep 17, 2015 $9.9923% (63%)0 .. 20,0000%00:00 (00:00)
49 Cuban Missile Crisis: Ice Crusade Jul 29, 2005 $4.99N/A (N/A)20,000 .. 50,0000%00:00 (00:00)
50 Freight Tycoon Inc. Aug 15, 2007 $4.9921% (61%)20,000 .. 50,0000%00:00 (00:00)
51 Element TD Jan 20, 2017 $0.99N/A (N/A)0 .. 20,0000%00:00 (00:00)
52 Business Tour - Online Multiplayer Board Game Jul 27, 2017 Free21% (61%)1,000,000 .. 2,000,0007.04%03:11 (00:50)
53 Spice Road Apr 24, 2014 $19.9921% (61%)0 .. 20,0000%00:00 (00:00)
54 SunAge: Battle for Elysium Dec 15, 2014 $14.9921% (61%)0 .. 20,0000%00:00 (00:00)
55 Close Combat - Panthers in the Fog Nov 19, 2012 $39.9920% (60%)0 .. 20,0000%00:00 (00:00)
56 Ninja Cats vs Samurai Dogs Feb 21, 2014 $4.99N/A (N/A)0 .. 20,0000%00:00 (00:00)
57 LA Cops Mar 13, 2015 $3.7420% (60%/45%)0 .. 20,0000%00:00 (00:00)
58 Check vs Mate Aug 16, 2012 $19.9917% (58%/69%)0 .. 20,0000%00:00 (00:00)
59 Slayer Shock Sep 29, 2016 $19.9917% (58%)0 .. 20,0000%00:00 (00:00)
60 Life in Bunker Feb 25, 2016 $15.9917% (58%)0 .. 20,0000%00:00 (00:00)
61 Dungeon Manager ZV Oct 16, 2015 $9.9916% (57%)0 .. 20,0000%00:00 (00:00)
62 reconquest Dec 16, 2016 $11.9915% (55%)0 .. 20,0000%00:00 (00:00)
63 Ant Queen Jun 15, 2016 $3.9914% (54%)0 .. 20,00011.11%00:25 (00:08)
64 Desert Law Apr 29, 2005 $2.99N/A (N/A)20,000 .. 50,0000%00:00 (00:00)
65 Chronostorm: Siberian Border Apr 2, 2009 $0.62N/A (N/A)0 .. 20,0000%00:00 (00:00)
66 Star Traders: 4X Empires Nov 18, 2014 $9.9910% (48%)0 .. 20,0004.55%02:18 (00:46)
67 3D Chess Dec 6, 2016 $9.99N/A (N/A)0 .. 20,0006.67%00:01 (00:00)
68 ZAMB! Biomutant Extermination Jun 20, 2014 N/AN/A (N/A)0 .. 20,0000%00:00 (00:00)
69 Clockwork Empires Oct 26, 2016 $29.999% (45%/58%)0 .. 20,0000%00:00 (00:00)
70 Rulers of Nations Jul 16, 2014 $19.998% (43%/63%)0 .. 20,0000%00:00 (00:00)
71 Zombie Wars: Invasion Jan 14, 2016 $2.997% (42%)0 .. 20,0000%00:00 (00:00)
72 Cubesis Aug 22, 2014 $4.99N/A (N/A)0 .. 20,0000%00:00 (00:00)
73 Sim Junta Aug 18, 2015 $0.495% (35%)0 .. 20,0000%00:00 (00:00)
74 CTU: Counter Terrorism Unit Apr 22, 2016 $4.994% (34%)0 .. 20,0000%00:00 (00:00)
75 Storm over the Pacific Jun 13, 2014 $9.99N/A (N/A)0 .. 20,0000%00:00 (00:00)
76 Power of Defense Aug 4, 2010 $9.99N/A (N/A)0 .. 20,0000%00:00 (00:00)
77 Direct Hit: Missile War Mar 1, 2011 $9.99N/A (N/A)0 .. 20,0000%00:00 (00:00)
78 Jurassic Island: The Dinosaur Zoo Jun 11, 2015 $3.991% (3%)0 .. 20,0000%00:00 (00:00)
79 Fray: Reloaded Edition Jun 19, 2012 N/AN/A (N/A/27%)0 .. 20,0000%00:00 (00:00)

Tags over time:

Access restricted.

This feature is only available to users with special access rights. Sorry.

If you want to proceed, you need to register or log in first and then back Steam Spy on Patreon. Look for Indie or Pro pledge.

Don't forget to use the same email as on Steam Spy!

Owners of this game also own:

Access restricted.

This feature is only available to users with special access rights. Sorry.

If you want to proceed, you need to register or log in first and then back Steam Spy on Patreon. Look for Indie or Pro pledge.

Don't forget to use the same email as on Steam Spy!

Playtime distribution:

Access restricted.

This feature is only available to users with special access rights. Sorry.

If you want to proceed, you need to register or log in first and then back Steam Spy on Patreon. Look for Indie or Pro pledge.

Don't forget to use the same email as on Steam Spy!

Playtime (2 weeks):

Access restricted.

This feature is only available to users with special access rights. Sorry.

If you want to proceed, you need to register or log in first and then back Steam Spy on Patreon. Look for Indie or Pro pledge.

Don't forget to use the same email as on Steam Spy!

User reviews:

Login required.

Please register or log in to see this information.